sensor_id;sensor_type;location;lat;lon;timestamp;pressure;altitude;pressure_sealevel;temperature;humidity
16664;BME280;8445;51.270;9.434;2023-04-08T00:02:18;99940.06;;;2.48;57.98
16664;BME280;8445;51.270;9.434;2023-04-08T00:04:43;99942.66;;;2.48;57.70
16664;BME280;8445;51.270;9.434;2023-04-08T00:07:09;99950.44;;;2.49;57.80
16664;BME280;8445;51.270;9.434;2023-04-08T00:09:35;99946.94;;;2.50;57.77
16664;BME280;8445;51.270;9.434;2023-04-08T00:12:00;99946.63;;;2.60;58.18
16664;BME280;8445;51.270;9.434;2023-04-08T00:14:28;99942.19;;;2.62;58.00
16664;BME280;8445;51.270;9.434;2023-04-08T00:16:56;99946.50;;;2.63;58.04
16664;BME280;8445;51.270;9.434;2023-04-08T00:19:26;99943.16;;;2.59;58.04
16664;BME280;8445;51.270;9.434;2023-04-08T00:21:52;99943.19;;;2.58;58.48
16664;BME280;8445;51.270;9.434;2023-04-08T00:24:18;99945.09;;;2.54;58.03
16664;BME280;8445;51.270;9.434;2023-04-08T00:26:43;99944.22;;;2.54;58.32
16664;BME280;8445;51.270;9.434;2023-04-08T00:29:09;99945.91;;;2.55;58.12
16664;BME280;8445;51.270;9.434;2023-04-08T00:31:37;99939.59;;;2.62;57.49
16664;BME280;8445;51.270;9.434;2023-04-08T00:34:03;99940.00;;;2.75;57.75
16664;BME280;8445;51.270;9.434;2023-04-08T00:36:29;99939.66;;;2.86;57.91
16664;BME280;8445;51.270;9.434;2023-04-08T00:38:55;99938.88;;;2.82;57.90
16664;BME280;8445;51.270;9.434;2023-04-08T00:41:20;99945.19;;;2.76;57.45
16664;BME280;8445;51.270;9.434;2023-04-08T00:43:46;99945.88;;;2.81;57.72
16664;BME280;8445;51.270;9.434;2023-04-08T00:46:20;99948.50;;;2.81;58.44
16664;BME280;8445;51.270;9.434;2023-04-08T00:48:48;99949.31;;;2.84;57.87
16664;BME280;8445;51.270;9.434;2023-04-08T00:51:16;99943.97;;;2.87;58.08
16664;BME280;8445;51.270;9.434;2023-04-08T00:53:42;99939.47;;;2.90;58.59
16664;BME280;8445;51.270;9.434;2023-04-08T00:56:07;99938.53;;;2.93;58.35
16664;BME280;8445;51.270;9.434;2023-04-08T00:58:33;99943.50;;;2.99;58.13
16664;BME280;8445;51.270;9.434;2023-04-08T01:01:02;99941.56;;;3.06;58.25
16664;BME280;8445;51.270;9.434;2023-04-08T01:06:10;99942.88;;;3.18;58.66
16664;BME280;8445;51.270;9.434;2023-04-08T01:08:37;99944.56;;;3.19;58.11
16664;BME280;8445;51.270;9.434;2023-04-08T01:11:09;99953.09;;;3.24;58.77
16664;BME280;8445;51.270;9.434;2023-04-08T01:13:37;99943.63;;;3.21;58.79
16664;BME280;8445;51.270;9.434;2023-04-08T01:16:05;99942.75;;;3.21;58.56
16664;BME280;8445;51.270;9.434;2023-04-08T01:18:34;99938.66;;;3.14;58.68
16664;BME280;8445;51.270;9.434;2023-04-08T01:21:01;99933.50;;;3.12;58.44
16664;BME280;8445;51.270;9.434;2023-04-08T01:23:58;99945.25;;;3.24;59.36
16664;BME280;8445;51.270;9.434;2023-04-08T01:26:26;99933.88;;;3.25;58.91
16664;BME280;8445;51.270;9.434;2023-04-08T01:28:55;99934.81;;;3.24;58.89
16664;BME280;8445;51.270;9.434;2023-04-08T01:31:24;99945.16;;;3.27;59.03
16664;BME280;8445;51.270;9.434;2023-04-08T01:33:53;99948.50;;;3.31;59.08
16664;BME280;8445;51.270;9.434;2023-04-08T01:36:23;99947.31;;;3.39;59.07
16664;BME280;8445;51.270;9.434;2023-04-08T01:38:50;99954.94;;;3.46;58.98
16664;BME280;8445;51.270;9.434;2023-04-08T01:41:17;99956.28;;;3.56;58.85
16664;BME280;8445;51.270;9.434;2023-04-08T01:43:43;99958.50;;;3.67;59.05
16664;BME280;8445;51.270;9.434;2023-04-08T01:46:10;99957.47;;;3.71;58.95
16664;BME280;8445;51.270;9.434;2023-04-08T01:48:40;99954.56;;;3.79;58.99
16664;BME280;8445;51.270;9.434;2023-04-08T01:51:06;99955.41;;;3.79;58.58
16664;BME280;8445;51.270;9.434;2023-04-08T01:53:36;99956.13;;;3.83;59.11
16664;BME280;8445;51.270;9.434;2023-04-08T01:56:08;99956.97;;;3.83;59.36
16664;BME280;8445;51.270;9.434;2023-04-08T01:58:41;99957.84;;;3.84;58.84
16664;BME280;8445;51.270;9.434;2023-04-08T02:01:13;99952.50;;;3.87;59.47
16664;BME280;8445;51.270;9.434;2023-04-08T02:03:42;99959.44;;;3.88;59.03
16664;BME280;8445;51.270;9.434;2023-04-08T02:06:08;99950.56;;;3.92;59.12
16664;BME280;8445;51.270;9.434;2023-04-08T02:08:41;99950.31;;;3.98;59.54
16664;BME280;8445;51.270;9.434;2023-04-08T02:11:07;99951.78;;;4.06;59.05
16664;BME280;8445;51.270;9.434;2023-04-08T02:13:35;99952.50;;;4.09;59.25
16664;BME280;8445;51.270;9.434;2023-04-08T02:16:22;99955.72;;;4.16;60.20
16664;BME280;8445;51.270;9.434;2023-04-08T02:18:59;99952.13;;;4.19;59.92
16664;BME280;8445;51.270;9.434;2023-04-08T02:21:32;99944.19;;;4.20;59.79
16664;BME280;8445;51.270;9.434;2023-04-08T02:24:04;99941.41;;;4.25;59.39
16664;BME280;8445;51.270;9.434;2023-04-08T02:26:35;99941.94;;;4.33;59.89
16664;BME280;8445;51.270;9.434;2023-04-08T02:29:04;99952.22;;;4.38;59.53
16664;BME280;8445;51.270;9.434;2023-04-08T02:31:34;99962.38;;;4.45;59.55
16664;BME280;8445;51.270;9.434;2023-04-08T02:33:59;99954.53;;;4.45;59.92
16664;BME280;8445;51.270;9.434;2023-04-08T02:36:36;99959.63;;;4.49;59.61
16664;BME280;8445;51.270;9.434;2023-04-08T02:39:03;99951.59;;;4.53;59.83
16664;BME280;8445;51.270;9.434;2023-04-08T02:41:29;99955.78;;;4.57;59.90
16664;BME280;8445;51.270;9.434;2023-04-08T02:43:56;99951.34;;;4.59;59.62
16664;BME280;8445;51.270;9.434;2023-04-08T02:46:24;99952.25;;;4.58;59.21
16664;BME280;8445;51.270;9.434;2023-04-08T02:48:53;99954.09;;;4.56;59.79
16664;BME280;8445;51.270;9.434;2023-04-08T02:51:21;99953.97;;;4.59;59.58
16664;BME280;8445;51.270;9.434;2023-04-08T02:53:50;99954.75;;;4.62;59.34
16664;BME280;8445;51.270;9.434;2023-04-08T02:56:21;99954.63;;;4.65;59.78
16664;BME280;8445;51.270;9.434;2023-04-08T02:58:46;99956.19;;;4.69;60.05
16664;BME280;8445;51.270;9.434;2023-04-08T03:01:16;99953.41;;;4.72;59.87
16664;BME280;8445;51.270;9.434;2023-04-08T03:03:41;99953.28;;;4.75;59.79
16664;BME280;8445;51.270;9.434;2023-04-08T03:06:09;99966.28;;;4.78;60.09
16664;BME280;8445;51.270;9.434;2023-04-08T03:08:35;99962.84;;;4.76;59.77
16664;BME280;8445;51.270;9.434;2023-04-08T03:11:44;99959.06;;;4.83;60.05
16664;BME280;8445;51.270;9.434;2023-04-08T03:15:01;99955.53;;;4.84;59.86
16664;BME280;8445;51.270;9.434;2023-04-08T03:17:50;99959.81;;;4.87;60.27
16664;BME280;8445;51.270;9.434;2023-04-08T03:21:02;99966.53;;;4.93;59.71
16664;BME280;8445;51.270;9.434;2023-04-08T03:24:24;99972.69;;;4.92;60.07
16664;BME280;8445;51.270;9.434;2023-04-08T03:27:25;99978.03;;;4.90;60.63
16664;BME280;8445;51.270;9.434;2023-04-08T03:30:24;99975.72;;;4.82;59.78
16664;BME280;8445;51.270;9.434;2023-04-08T03:40:20;99983.19;;;4.92;60.58
16664;BME280;8445;51.270;9.434;2023-04-08T03:43:09;99983.84;;;4.97;61.22
16664;BME280;8445;51.270;9.434;2023-04-08T03:45:58;99975.84;;;5.00;59.98
16664;BME280;8445;51.270;9.434;2023-04-08T03:48:47;99965.22;;;5.03;60.37
16664;BME280;8445;51.270;9.434;2023-04-08T03:52:21;99963.38;;;5.05;59.63
16664;BME280;8445;51.270;9.434;2023-04-08T04:01:55;99962.06;;;5.15;60.56
16664;BME280;8445;51.270;9.434;2023-04-08T04:14:06;99975.25;;;5.33;60.60
16664;BME280;8445;51.270;9.434;2023-04-08T04:16:47;99970.75;;;5.37;61.14
16664;BME280;8445;51.270;9.434;2023-04-08T04:48:03;100004.31;;;5.49;60.78
16664;BME280;8445;51.270;9.434;2023-04-08T04:54:48;100012.50;;;5.41;62.04
16664;BME280;8445;51.270;9.434;2023-04-08T04:57:37;100017.19;;;5.34;63.91
16664;BME280;8445;51.270;9.434;2023-04-08T05:01:11;100016.19;;;5.37;63.46
16664;BME280;8445;51.270;9.434;2023-04-08T05:10:45;100024.72;;;5.42;62.03
16664;BME280;8445;51.270;9.434;2023-04-08T05:13:34;100024.97;;;5.36;64.87
16664;BME280;8445;51.270;9.434;2023-04-08T05:16:23;100025.63;;;5.41;62.35
16664;BME280;8445;51.270;9.434;2023-04-08T05:19:11;100038.63;;;5.44;65.36
16664;BME280;8445;51.270;9.434;2023-04-08T05:22:22;100040.31;;;5.45;61.99
16664;BME280;8445;51.270;9.434;2023-04-08T05:24:49;100035.34;;;5.39;64.43
16664;BME280;8445;51.270;9.434;2023-04-08T05:27:17;100040.31;;;5.45;62.54
16664;BME280;8445;51.270;9.434;2023-04-08T05:37:29;100041.50;;;5.59;61.99
16664;BME280;8445;51.270;9.434;2023-04-08T05:40:26;100041.63;;;5.56;62.51
16664;BME280;8445;51.270;9.434;2023-04-08T05:43:23;100036.94;;;5.62;62.29
16664;BME280;8445;51.270;9.434;2023-04-08T05:46:36;100039.78;;;5.58;63.96
16664;BME280;8445;51.270;9.434;2023-04-08T05:49:12;100036.31;;;5.57;63.53
16664;BME280;8445;51.270;9.434;2023-04-08T06:01:12;100058.19;;;5.77;63.66
16664;BME280;8445;51.270;9.434;2023-04-08T06:03:41;100066.50;;;5.87;62.39
16664;BME280;8445;51.270;9.434;2023-04-08T06:14:08;100069.88;;;5.89;65.20
16664;BME280;8445;51.270;9.434;2023-04-08T06:16:46;100067.06;;;5.93;64.80
16664;BME280;8445;51.270;9.434;2023-04-08T06:19:34;100085.50;;;5.92;64.41
16664;BME280;8445;51.270;9.434;2023-04-08T06:25:25;100070.09;;;6.05;64.42
16664;BME280;8445;51.270;9.434;2023-04-08T06:31:58;100090.38;;;6.01;67.66
16664;BME280;8445;51.270;9.434;2023-04-08T06:34:47;100071.84;;;6.04;65.17
16664;BME280;8445;51.270;9.434;2023-04-08T06:42:03;100087.69;;;6.22;65.53
16664;BME280;8445;51.270;9.434;2023-04-08T06:45:05;100072.75;;;6.22;65.77
16664;BME280;8445;51.270;9.434;2023-04-08T06:47:54;100087.56;;;6.25;64.86
16664;BME280;8445;51.270;9.434;2023-04-08T06:53:54;100094.44;;;6.28;65.51
16664;BME280;8445;51.270;9.434;2023-04-08T06:56:43;100100.75;;;6.23;66.58
16664;BME280;8445;51.270;9.434;2023-04-08T06:59:44;100100.19;;;6.17;66.72
16664;BME280;8445;51.270;9.434;2023-04-08T07:02:55;100099.41;;;6.15;65.57
16664;BME280;8445;51.270;9.434;2023-04-08T07:09:17;100113.53;;;6.12;67.34
16664;BME280;8445;51.270;9.434;2023-04-08T07:12:06;100105.31;;;6.20;66.85
16664;BME280;8445;51.270;9.434;2023-04-08T07:24:29;100125.44;;;6.19;68.11
16664;BME280;8445;51.270;9.434;2023-04-08T07:27:05;100134.47;;;6.14;69.73
16664;BME280;8445;51.270;9.434;2023-04-08T07:33:08;100133.69;;;6.12;69.62
16664;BME280;8445;51.270;9.434;2023-04-08T07:36:17;100136.13;;;6.16;70.36
16664;BME280;8445;51.270;9.434;2023-04-08T07:39:06;100141.94;;;6.23;72.53
16664;BME280;8445;51.270;9.434;2023-04-08T07:48:17;100156.16;;;6.76;69.95
16664;BME280;8445;51.270;9.434;2023-04-08T07:51:12;100152.56;;;6.77;69.42
16664;BME280;8445;51.270;9.434;2023-04-08T07:54:07;100149.72;;;6.82;69.82
16664;BME280;8445;51.270;9.434;2023-04-08T07:56:55;100155.38;;;6.92;68.48
16664;BME280;8445;51.270;9.434;2023-04-08T08:06:52;100171.44;;;7.22;68.97
16664;BME280;8445;51.270;9.434;2023-04-08T08:15:41;100171.94;;;7.48;68.43
16664;BME280;8445;51.270;9.434;2023-04-08T08:20:45;100171.78;;;7.51;68.48
16664;BME280;8445;51.270;9.434;2023-04-08T08:23:33;100179.28;;;7.77;68.57
16664;BME280;8445;51.270;9.434;2023-04-08T08:33:11;100181.31;;;8.23;66.90
16664;BME280;8445;51.270;9.434;2023-04-08T08:35:40;100177.97;;;8.35;67.22
16664;BME280;8445;51.270;9.434;2023-04-08T08:38:08;100175.00;;;8.41;66.96
16664;BME280;8445;51.270;9.434;2023-04-08T08:40:33;100186.97;;;8.49;66.83
16664;BME280;8445;51.270;9.434;2023-04-08T08:42:59;100190.81;;;8.59;66.69
16664;BME280;8445;51.270;9.434;2023-04-08T08:45:26;100187.31;;;8.58;66.94
16664;BME280;8445;51.270;9.434;2023-04-08T08:47:51;100188.06;;;8.60;66.96
16664;BME280;8445;51.270;9.434;2023-04-08T08:50:19;100190.38;;;8.51;66.50
16664;BME280;8445;51.270;9.434;2023-04-08T08:52:49;100194.88;;;8.49;67.02
16664;BME280;8445;51.270;9.434;2023-04-08T08:55:20;100203.84;;;8.62;66.92
16664;BME280;8445;51.270;9.434;2023-04-08T08:57:49;100202.28;;;8.74;66.97
16664;BME280;8445;51.270;9.434;2023-04-08T09:00:15;100209.81;;;8.82;66.59
16664;BME280;8445;51.270;9.434;2023-04-08T09:02:46;100206.91;;;8.70;66.83
16664;BME280;8445;51.270;9.434;2023-04-08T09:05:11;100216.53;;;8.71;66.87
16664;BME280;8445;51.270;9.434;2023-04-08T09:07:37;100218.72;;;8.79;66.35
16664;BME280;8445;51.270;9.434;2023-04-08T09:10:06;100217.28;;;8.73;66.24
16664;BME280;8445;51.270;9.434;2023-04-08T09:12:53;100214.06;;;8.68;66.15
16664;BME280;8445;51.270;9.434;2023-04-08T09:15:19;100220.25;;;8.67;66.32
16664;BME280;8445;51.270;9.434;2023-04-08T09:17:45;100218.78;;;8.62;66.26
16664;BME280;8445;51.270;9.434;2023-04-08T09:20:12;100227.13;;;8.54;66.14
16664;BME280;8445;51.270;9.434;2023-04-08T09:22:59;100220.78;;;8.40;67.08
16664;BME280;8445;51.270;9.434;2023-04-08T09:25:32;100225.59;;;8.50;67.41
16664;BME280;8445;51.270;9.434;2023-04-08T09:27:58;100224.94;;;8.62;66.29
16664;BME280;8445;51.270;9.434;2023-04-08T09:30:26;100227.25;;;8.68;66.25
16664;BME280;8445;51.270;9.434;2023-04-08T09:32:53;100229.38;;;8.78;66.49
16664;BME280;8445;51.270;9.434;2023-04-08T09:35:19;100228.69;;;8.74;66.36
16664;BME280;8445;51.270;9.434;2023-04-08T09:37:46;100237.13;;;8.81;66.40
16664;BME280;8445;51.270;9.434;2023-04-08T09:40:12;100237.34;;;8.92;66.55
16664;BME280;8445;51.270;9.434;2023-04-08T09:42:43;100238.63;;;9.17;66.71
16664;BME280;8445;51.270;9.434;2023-04-08T09:45:11;100239.91;;;9.42;66.45
16664;BME280;8445;51.270;9.434;2023-04-08T09:48:05;100231.81;;;9.59;66.64
16664;BME280;8445;51.270;9.434;2023-04-08T09:50:30;100233.44;;;9.92;66.53
16664;BME280;8445;51.270;9.434;2023-04-08T09:53:01;100237.88;;;10.06;65.79
16664;BME280;8445;51.270;9.434;2023-04-08T09:55:35;100237.78;;;10.08;66.10
16664;BME280;8445;51.270;9.434;2023-04-08T09:58:08;100242.88;;;10.11;65.87
16664;BME280;8445;51.270;9.434;2023-04-08T10:00:41;100244.41;;;10.15;65.95
16664;BME280;8445;51.270;9.434;2023-04-08T10:03:35;100244.72;;;10.40;66.33
16664;BME280;8445;51.270;9.434;2023-04-08T10:06:05;100251.72;;;10.41;66.20
16664;BME280;8445;51.270;9.434;2023-04-08T10:08:32;100244.66;;;10.41;66.55
16664;BME280;8445;51.270;9.434;2023-04-08T10:10:58;100243.72;;;10.57;66.78
16664;BME280;8445;51.270;9.434;2023-04-08T10:13:24;100244.31;;;10.89;66.68
16664;BME280;8445;51.270;9.434;2023-04-08T10:18:41;100248.38;;;10.22;65.50
16664;BME280;8445;51.270;9.434;2023-04-08T10:21:45;100254.63;;;10.21;65.71
16664;BME280;8445;51.270;9.434;2023-04-08T10:24:12;100247.63;;;10.35;65.79
16664;BME280;8445;51.270;9.434;2023-04-08T10:26:40;100245.00;;;10.35;65.76
16664;BME280;8445;51.270;9.434;2023-04-08T10:29:29;100239.72;;;10.35;65.34
16664;BME280;8445;51.270;9.434;2023-04-08T10:31:55;100243.66;;;10.86;67.25
16664;BME280;8445;51.270;9.434;2023-04-08T10:34:23;100249.53;;;11.18;66.72
16664;BME280;8445;51.270;9.434;2023-04-08T10:36:50;100256.09;;;11.12;65.63
16664;BME280;8445;51.270;9.434;2023-04-08T10:39:16;100245.94;;;10.77;65.11
16664;BME280;8445;51.270;9.434;2023-04-08T10:41:45;100246.06;;;10.61;65.20
16664;BME280;8445;51.270;9.434;2023-04-08T10:44:23;100253.78;;;10.21;64.85
16664;BME280;8445;51.270;9.434;2023-04-08T10:46:50;100250.63;;;10.14;65.28
16664;BME280;8445;51.270;9.434;2023-04-08T10:49:16;100247.69;;;10.04;65.46
16664;BME280;8445;51.270;9.434;2023-04-08T10:51:43;100248.94;;;9.99;65.78
16664;BME280;8445;51.270;9.434;2023-04-08T10:54:14;100247.63;;;10.20;65.69
16664;BME280;8445;51.270;9.434;2023-04-08T10:56:49;100257.19;;;10.23;64.53
16664;BME280;8445;51.270;9.434;2023-04-08T10:59:16;100254.31;;;10.12;65.24
16664;BME280;8445;51.270;9.434;2023-04-08T11:01:45;100254.41;;;9.96;64.79
16664;BME280;8445;51.270;9.434;2023-04-08T11:04:15;100260.59;;;9.80;64.88
16664;BME280;8445;51.270;9.434;2023-04-08T11:06:42;100252.38;;;9.85;64.66
16664;BME280;8445;51.270;9.434;2023-04-08T11:09:11;100260.94;;;9.74;64.90
16664;BME280;8445;51.270;9.434;2023-04-08T11:11:37;100262.66;;;9.75;64.57
16664;BME280;8445;51.270;9.434;2023-04-08T11:14:02;100258.28;;;9.74;64.76
16664;BME280;8445;51.270;9.434;2023-04-08T11:16:29;100275.94;;;9.73;64.41
16664;BME280;8445;51.270;9.434;2023-04-08T11:18:54;100267.38;;;9.84;64.53
16664;BME280;8445;51.270;9.434;2023-04-08T11:21:24;100267.38;;;9.84;64.60
16664;BME280;8445;51.270;9.434;2023-04-08T11:23:54;100269.09;;;9.85;64.86
16664;BME280;8445;51.270;9.434;2023-04-08T11:26:20;100263.09;;;9.98;64.79
16664;BME280;8445;51.270;9.434;2023-04-08T11:28:46;100274.56;;;10.27;64.71
16664;BME280;8445;51.270;9.434;2023-04-08T11:31:15;100271.03;;;9.98;64.94
16664;BME280;8445;51.270;9.434;2023-04-08T11:33:45;100258.75;;;9.97;65.31
16664;BME280;8445;51.270;9.434;2023-04-08T11:36:11;100257.63;;;10.01;65.87
16664;BME280;8445;51.270;9.434;2023-04-08T11:38:40;100268.78;;;10.20;65.06
16664;BME280;8445;51.270;9.434;2023-04-08T11:41:09;100268.22;;;10.30;65.43
16664;BME280;8445;51.270;9.434;2023-04-08T11:43:35;100265.34;;;10.49;65.34
16664;BME280;8445;51.270;9.434;2023-04-08T11:51:27;100260.66;;;10.96;65.67
16664;BME280;8445;51.270;9.434;2023-04-08T11:53:53;100251.81;;;11.24;65.88
16664;BME280;8445;51.270;9.434;2023-04-08T11:56:20;100242.47;;;11.99;66.65
16664;BME280;8445;51.270;9.434;2023-04-08T11:58:46;100239.47;;;12.69;66.60
16664;BME280;8445;51.270;9.434;2023-04-08T12:01:12;100238.19;;;13.36;66.25
16664;BME280;8445;51.270;9.434;2023-04-08T12:03:38;100237.69;;;13.91;65.87
16664;BME280;8445;51.270;9.434;2023-04-08T12:06:04;100238.19;;;13.96;64.48
16664;BME280;8445;51.270;9.434;2023-04-08T12:08:31;100246.72;;;13.77;63.82
16664;BME280;8445;51.270;9.434;2023-04-08T12:10:56;100256.56;;;13.39;64.39
16664;BME280;8445;51.270;9.434;2023-04-08T12:13:22;100251.13;;;13.16;63.50
16664;BME280;8445;51.270;9.434;2023-04-08T12:15:47;100262.50;;;12.81;63.47
16664;BME280;8445;51.270;9.434;2023-04-08T12:18:13;100260.75;;;12.93;64.61
16664;BME280;8445;51.270;9.434;2023-04-08T12:20:38;100269.81;;;12.90;63.80
16664;BME280;8445;51.270;9.434;2023-04-08T12:23:04;100256.53;;;12.78;63.79
16664;BME280;8445;51.270;9.434;2023-04-08T12:25:31;100261.44;;;12.71;63.70
16664;BME280;8445;51.270;9.434;2023-04-08T12:27:56;100252.75;;;12.43;63.46
16664;BME280;8445;51.270;9.434;2023-04-08T12:30:22;100252.47;;;12.48;63.43
16664;BME280;8445;51.270;9.434;2023-04-08T12:32:50;100256.16;;;12.71;63.55
16664;BME280;8445;51.270;9.434;2023-04-08T12:35:15;100257.63;;;12.75;63.03
16664;BME280;8445;51.270;9.434;2023-04-08T12:37:40;100255.72;;;12.77;62.78
16664;BME280;8445;51.270;9.434;2023-04-08T12:40:06;100261.97;;;12.76;62.19
16664;BME280;8445;51.270;9.434;2023-04-08T12:42:32;100252.00;;;12.67;63.12
16664;BME280;8445;51.270;9.434;2023-04-08T12:44:59;100261.69;;;13.05;63.47
16664;BME280;8445;51.270;9.434;2023-04-08T12:47:25;100257.84;;;13.33;62.76
16664;BME280;8445;51.270;9.434;2023-04-08T12:49:50;100266.78;;;13.45;62.13
16664;BME280;8445;51.270;9.434;2023-04-08T12:52:16;100261.81;;;13.28;61.76
16664;BME280;8445;51.270;9.434;2023-04-08T12:54:41;100267.28;;;13.13;62.41
16664;BME280;8445;51.270;9.434;2023-04-08T12:57:07;100271.25;;;13.08;61.83
16664;BME280;8445;51.270;9.434;2023-04-08T12:59:32;100270.28;;;12.58;61.56
16664;BME280;8445;51.270;9.434;2023-04-08T13:01:58;100269.63;;;12.42;62.25
16664;BME280;8445;51.270;9.434;2023-04-08T13:04:23;100262.97;;;12.23;62.34
16664;BME280;8445;51.270;9.434;2023-04-08T13:06:49;100252.56;;;12.33;62.27
16664;BME280;8445;51.270;9.434;2023-04-08T13:09:15;100248.19;;;12.71;62.79
16664;BME280;8445;51.270;9.434;2023-04-08T13:11:41;100249.88;;;13.09;62.37
16664;BME280;8445;51.270;9.434;2023-04-08T13:14:06;100254.06;;;13.25;62.22
16664;BME280;8445;51.270;9.434;2023-04-08T13:16:32;100242.72;;;13.23;62.31
16664;BME280;8445;51.270;9.434;2023-04-08T13:18:57;100248.75;;;13.25;62.60
16664;BME280;8445;51.270;9.434;2023-04-08T13:21:23;100247.13;;;13.11;62.48
16664;BME280;8445;51.270;9.434;2023-04-08T13:23:49;100252.00;;;13.17;61.71
16664;BME280;8445;51.270;9.434;2023-04-08T13:26:14;100255.84;;;13.00;61.55
16664;BME280;8445;51.270;9.434;2023-04-08T13:28:40;100260.50;;;13.09;62.00
16664;BME280;8445;51.270;9.434;2023-04-08T13:31:05;100248.91;;;13.47;61.13
16664;BME280;8445;51.270;9.434;2023-04-08T13:33:31;100251.50;;;13.60;60.88
16664;BME280;8445;51.270;9.434;2023-04-08T13:35:56;100260.38;;;13.48;60.48
16664;BME280;8445;51.270;9.434;2023-04-08T13:38:22;100253.50;;;13.45;61.46
16664;BME280;8445;51.270;9.434;2023-04-08T13:40:47;100249.91;;;13.58;61.28
16664;BME280;8445;51.270;9.434;2023-04-08T13:43:14;100256.06;;;13.94;60.78
16664;BME280;8445;51.270;9.434;2023-04-08T13:45:41;100258.66;;;14.18;59.27
16664;BME280;8445;51.270;9.434;2023-04-08T13:48:09;100249.66;;;13.97;59.22
16664;BME280;8445;51.270;9.434;2023-04-08T13:50:34;100240.50;;;13.65;60.06
16664;BME280;8445;51.270;9.434;2023-04-08T13:53:00;100243.66;;;13.70;59.29
16664;BME280;8445;51.270;9.434;2023-04-08T13:55:26;100237.63;;;13.68;59.68
16664;BME280;8445;51.270;9.434;2023-04-08T13:57:51;100237.66;;;13.79;59.43
16664;BME280;8445;51.270;9.434;2023-04-08T14:00:18;100237.56;;;13.81;58.83
16664;BME280;8445;51.270;9.434;2023-04-08T14:02:45;100231.09;;;13.72;58.78
16664;BME280;8445;51.270;9.434;2023-04-08T14:05:10;100219.44;;;13.51;58.88
16664;BME280;8445;51.270;9.434;2023-04-08T14:07:36;100240.44;;;13.42;58.15
16664;BME280;8445;51.270;9.434;2023-04-08T14:10:01;100227.16;;;13.05;57.83
16664;BME280;8445;51.270;9.434;2023-04-08T14:12:27;100227.25;;;12.79;58.15
16664;BME280;8445;51.270;9.434;2023-04-08T14:14:56;100228.63;;;12.72;57.90
16664;BME280;8445;51.270;9.434;2023-04-08T14:17:25;100235.59;;;12.49;57.70
16664;BME280;8445;51.270;9.434;2023-04-08T14:19:50;100232.00;;;12.11;57.61
16664;BME280;8445;51.270;9.434;2023-04-08T14:22:15;100234.31;;;12.03;57.70
16664;BME280;8445;51.270;9.434;2023-04-08T14:24:43;100228.25;;;12.00;57.79
16664;BME280;8445;51.270;9.434;2023-04-08T14:27:08;100230.94;;;12.26;58.01
16664;BME280;8445;51.270;9.434;2023-04-08T14:29:34;100228.56;;;12.48;58.03
16664;BME280;8445;51.270;9.434;2023-04-08T14:31:59;100222.00;;;12.40;57.38
16664;BME280;8445;51.270;9.434;2023-04-08T14:34:25;100230.28;;;12.23;57.28
16664;BME280;8445;51.270;9.434;2023-04-08T14:36:51;100223.06;;;11.99;57.46
16664;BME280;8445;51.270;9.434;2023-04-08T14:39:16;100215.88;;;12.01;57.54
16664;BME280;8445;51.270;9.434;2023-04-08T14:41:42;100227.41;;;12.26;57.76
16664;BME280;8445;51.270;9.434;2023-04-08T14:44:07;100220.94;;;12.43;57.53
16664;BME280;8445;51.270;9.434;2023-04-08T14:46:33;100224.63;;;12.53;57.62
16664;BME280;8445;51.270;9.434;2023-04-08T14:48:58;100222.09;;;12.89;58.31
16664;BME280;8445;51.270;9.434;2023-04-08T14:51:25;100221.69;;;13.44;57.79
16664;BME280;8445;51.270;9.434;2023-04-08T14:53:52;100223.59;;;13.66;58.01
16664;BME280;8445;51.270;9.434;2023-04-08T14:56:21;100229.72;;;13.91;57.06
16664;BME280;8445;51.270;9.434;2023-04-08T14:58:49;100228.94;;;13.77;56.83
16664;BME280;8445;51.270;9.434;2023-04-08T15:01:18;100222.03;;;13.63;56.47
16664;BME280;8445;51.270;9.434;2023-04-08T15:03:46;100226.56;;;13.50;56.69
16664;BME280;8445;51.270;9.434;2023-04-08T15:06:14;100221.47;;;13.47;56.92
16664;BME280;8445;51.270;9.434;2023-04-08T15:08:42;100219.91;;;13.56;56.95
16664;BME280;8445;51.270;9.434;2023-04-08T15:11:09;100221.00;;;13.53;56.46
16664;BME280;8445;51.270;9.434;2023-04-08T15:13:39;100223.66;;;13.29;56.17
16664;BME280;8445;51.270;9.434;2023-04-08T15:16:08;100228.31;;;13.14;56.50
16664;BME280;8445;51.270;9.434;2023-04-08T15:18:37;100222.50;;;12.96;56.58
16664;BME280;8445;51.270;9.434;2023-04-08T15:21:06;100226.16;;;12.95;56.77
16664;BME280;8445;51.270;9.434;2023-04-08T15:23:35;100227.81;;;12.96;56.61
16664;BME280;8445;51.270;9.434;2023-04-08T15:26:09;100226.38;;;12.92;56.80
16664;BME280;8445;51.270;9.434;2023-04-08T15:28:38;100235.66;;;12.73;56.87
16664;BME280;8445;51.270;9.434;2023-04-08T15:31:07;100236.53;;;12.48;56.73
16664;BME280;8445;51.270;9.434;2023-04-08T15:33:36;100236.03;;;12.29;56.92
16664;BME280;8445;51.270;9.434;2023-04-08T15:36:08;100235.91;;;12.18;56.96
16664;BME280;8445;51.270;9.434;2023-04-08T15:38:37;100240.91;;;12.10;57.11
16664;BME280;8445;51.270;9.434;2023-04-08T15:41:07;100235.06;;;12.05;56.98
16664;BME280;8445;51.270;9.434;2023-04-08T15:43:43;100229.41;;;11.96;57.24
16664;BME280;8445;51.270;9.434;2023-04-08T15:46:19;100232.03;;;11.83;58.11
16664;BME280;8445;51.270;9.434;2023-04-08T15:48:48;100241.22;;;11.78;57.90
16664;BME280;8445;51.270;9.434;2023-04-08T15:51:17;100238.56;;;11.65;57.15
16664;BME280;8445;51.270;9.434;2023-04-08T15:53:47;100247.25;;;11.54;57.70
16664;BME280;8445;51.270;9.434;2023-04-08T15:56:18;100240.84;;;11.44;57.72
16664;BME280;8445;51.270;9.434;2023-04-08T15:58:48;100245.41;;;11.41;57.98
16664;BME280;8445;51.270;9.434;2023-04-08T16:01:17;100247.81;;;11.32;57.83
16664;BME280;8445;51.270;9.434;2023-04-08T16:03:46;100248.72;;;11.18;57.96
16664;BME280;8445;51.270;9.434;2023-04-08T16:06:15;100252.31;;;11.17;57.39
16664;BME280;8445;51.270;9.434;2023-04-08T16:08:43;100244.41;;;11.02;58.90
16664;BME280;8445;51.270;9.434;2023-04-08T16:11:16;100253.88;;;10.92;58.68
16664;BME280;8445;51.270;9.434;2023-04-08T16:13:44;100256.91;;;10.86;58.06
16664;BME280;8445;51.270;9.434;2023-04-08T16:16:13;100264.75;;;10.73;58.96
16664;BME280;8445;51.270;9.434;2023-04-08T16:18:42;100259.00;;;10.66;59.49